createdAt,value
2016-09-26T00:00:17.445Z,0
2016-09-26T00:01:17.443Z,0
2016-09-26T00:02:17.790Z,0
2016-09-26T00:03:17.490Z,0
2016-09-26T00:04:17.510Z,0
2016-09-26T00:05:17.534Z,0
2016-09-26T00:06:17.554Z,0
2016-09-26T00:07:17.591Z,0
2016-09-26T00:08:17.614Z,0
2016-09-26T00:09:17.626Z,0
2016-09-26T00:10:17.651Z,0
2016-09-26T00:11:17.665Z,0
2016-09-26T00:12:17.692Z,0
2016-09-26T00:13:17.710Z,0
2016-09-26T00:14:17.731Z,0
2016-09-26T00:15:17.761Z,0
2016-09-26T00:16:17.777Z,0
2016-09-26T00:17:17.803Z,0
2016-09-26T00:18:17.820Z,0
2016-09-26T00:19:17.840Z,0
2016-09-26T00:20:17.867Z,0
2016-09-26T00:21:17.893Z,0
2016-09-26T00:22:17.916Z,0
2016-09-26T00:23:17.931Z,0
2016-09-26T00:24:17.949Z,0
2016-09-26T00:25:18.096Z,0
2016-09-26T00:26:18.110Z,0
2016-09-26T00:27:18.104Z,0
2016-09-26T00:28:18.130Z,0
2016-09-26T00:29:18.151Z,0
2016-09-26T00:30:18.631Z,0
2016-09-26T00:31:18.321Z,0
2016-09-26T00:32:18.326Z,0
2016-09-26T00:33:18.336Z,0
2016-09-26T00:34:18.376Z,0
2016-09-26T00:35:18.402Z,0
2016-09-26T00:36:18.393Z,0
2016-09-26T00:37:18.406Z,0
2016-09-26T00:38:18.448Z,0
2016-09-26T00:39:18.416Z,0
2016-09-26T00:40:18.426Z,0
2016-09-26T00:41:18.434Z,0
2016-09-26T00:42:18.447Z,0
2016-09-26T00:43:18.483Z,0
2016-09-26T00:44:18.452Z,0
2016-09-26T00:45:18.499Z,0
2016-09-26T00:46:18.438Z,0
2016-09-26T00:47:18.455Z,0
2016-09-26T00:48:18.522Z,0
2016-09-26T00:49:18.496Z,0
2016-09-26T00:50:18.518Z,0
2016-09-26T00:51:18.540Z,0
2016-09-26T00:52:18.579Z,0
2016-09-26T00:53:18.578Z,0
2016-09-26T00:54:18.606Z,0
2016-09-26T00:55:18.624Z,0
2016-09-26T00:56:18.655Z,0
2016-09-26T00:57:18.671Z,0
2016-09-26T00:58:18.693Z,0
2016-09-26T00:59:18.711Z,0
2016-09-26T01:00:18.733Z,0
2016-09-26T01:01:18.757Z,0
2016-09-26T01:02:18.782Z,0
2016-09-26T01:03:18.799Z,0
2016-09-26T01:04:18.829Z,0
2016-09-26T01:05:18.842Z,0
2016-09-26T01:06:18.860Z,0
2016-09-26T01:07:18.882Z,0
2016-09-26T01:08:18.924Z,0
2016-09-26T01:09:18.926Z,0
2016-09-26T01:10:18.955Z,0
2016-09-26T01:11:18.969Z,0
2016-09-26T01:12:18.992Z,0
2016-09-26T01:13:19.021Z,0
2016-09-26T01:14:19.043Z,0
2016-09-26T01:15:19.056Z,0
2016-09-26T01:16:19.075Z,0
2016-09-26T01:17:19.098Z,0
2016-09-26T01:18:19.126Z,0
2016-09-26T01:19:19.139Z,0
2016-09-26T01:20:19.165Z,0
2016-09-26T01:21:19.189Z,0
2016-09-26T01:22:19.214Z,0
2016-09-26T01:23:19.227Z,0
2016-09-26T01:24:19.249Z,0
2016-09-26T01:25:19.275Z,0
2016-09-26T01:26:19.294Z,0
2016-09-26T01:27:19.312Z,0
2016-09-26T01:28:19.334Z,0
2016-09-26T01:29:19.356Z,0
2016-09-26T01:30:19.375Z,0
2016-09-26T01:31:19.396Z,0
2016-09-26T01:32:19.419Z,0
2016-09-26T01:33:19.440Z,0
2016-09-26T01:34:19.461Z,0
2016-09-26T01:35:19.487Z,0
2016-09-26T01:36:19.508Z,0
2016-09-26T01:37:19.524Z,0
2016-09-26T01:38:19.751Z,0
2016-09-26T01:39:19.569Z,0
2016-09-26T01:40:19.591Z,0
2016-09-26T01:41:19.615Z,0
2016-09-26T01:42:19.633Z,0
2016-09-26T01:43:20.021Z,0
2016-09-26T01:44:19.676Z,0
2016-09-26T01:45:19.693Z,0
2016-09-26T01:46:19.718Z,0
2016-09-26T01:47:19.750Z,0
2016-09-26T01:48:19.764Z,0
2016-09-26T01:49:19.782Z,0
2016-09-26T01:50:19.807Z,0
2016-09-26T01:51:19.826Z,0
2016-09-26T01:52:19.858Z,0
2016-09-26T01:53:19.864Z,0
2016-09-26T01:54:19.888Z,0
2016-09-26T01:55:19.908Z,0
2016-09-26T01:56:19.932Z,0
2016-09-26T01:57:19.974Z,0
2016-09-26T01:58:19.969Z,0
2016-09-26T01:59:19.996Z,0
2016-09-26T02:00:20.017Z,0
2016-09-26T02:01:20.040Z,0
2016-09-26T02:02:20.058Z,0
2016-09-26T02:03:20.084Z,0
2016-09-26T02:04:20.123Z,0
2016-09-26T02:05:20.178Z,0
2016-09-26T02:06:20.145Z,0
2016-09-26T02:07:20.164Z,0
2016-09-26T02:08:20.191Z,0
2016-09-26T02:09:20.205Z,0
2016-09-26T02:10:20.229Z,0
2016-09-26T02:11:20.255Z,0
2016-09-26T02:12:20.276Z,0
2016-09-26T02:13:20.308Z,0
2016-09-26T02:14:20.320Z,0
2016-09-26T02:15:20.365Z,0
2016-09-26T02:16:20.355Z,0
2016-09-26T02:17:20.377Z,0
2016-09-26T02:18:20.395Z,0
2016-09-26T02:19:20.433Z,0
2016-09-26T02:20:20.445Z,0
2016-09-26T02:21:20.471Z,0
2016-09-26T02:22:20.515Z,0
2016-09-26T02:23:20.505Z,0
2016-09-26T02:24:20.524Z,0
2016-09-26T02:25:20.571Z,0
2016-09-26T02:26:20.573Z,0
2016-09-26T02:27:20.586Z,0
2016-09-26T02:28:20.927Z,0
2016-09-26T02:29:20.635Z,0
2016-09-26T02:30:20.649Z,0
2016-09-26T02:31:20.678Z,0
2016-09-26T02:32:20.692Z,0
2016-09-26T02:33:20.713Z,0
2016-09-26T02:34:20.733Z,0
2016-09-26T02:35:20.764Z,0
2016-09-26T02:36:20.781Z,0
2016-09-26T02:37:20.801Z,0
2016-09-26T02:38:20.818Z,0
2016-09-26T02:39:20.837Z,0
2016-09-26T02:40:20.861Z,0
2016-09-26T02:41:20.883Z,0
2016-09-26T02:42:20.902Z,0
2016-09-26T02:43:20.934Z,0
2016-09-26T02:44:20.946Z,0
2016-09-26T02:45:20.966Z,0
2016-09-26T02:46:20.985Z,0
2016-09-26T02:47:21.018Z,0
2016-09-26T02:48:21.030Z,0
2016-09-26T02:49:21.051Z,0
2016-09-26T02:50:21.070Z,0
2016-09-26T02:51:21.098Z,0
2016-09-26T02:52:21.110Z,0
2016-09-26T02:53:21.137Z,0
2016-09-26T02:54:21.154Z,0
2016-09-26T02:55:21.170Z,0
2016-09-26T02:56:21.203Z,0
2016-09-26T02:57:21.606Z,0
2016-09-26T02:58:21.242Z,0
2016-09-26T02:59:21.260Z,0
2016-09-26T03:00:21.633Z,0
2016-09-26T03:01:21.298Z,0
2016-09-26T03:02:21.320Z,0
2016-09-26T03:03:21.339Z,0
2016-09-26T03:04:21.363Z,0
2016-09-26T03:05:21.387Z,0
2016-09-26T03:06:21.415Z,0
2016-09-26T03:07:21.549Z,0
2016-09-26T03:08:21.558Z,0
2016-09-26T03:09:21.566Z,0
2016-09-26T03:10:21.601Z,0
2016-09-26T03:11:21.609Z,0
2016-09-26T03:12:21.608Z,0
2016-09-26T03:13:21.617Z,0
2016-09-26T03:14:21.627Z,0
2016-09-26T03:15:21.695Z,0
2016-09-26T03:16:21.694Z,0
2016-09-26T03:17:21.703Z,0
2016-09-26T03:18:21.711Z,0
2016-09-26T03:19:21.719Z,0
2016-09-26T03:20:21.843Z,0
2016-09-26T03:21:21.842Z,0
2016-09-26T03:22:21.745Z,0
2016-09-26T03:23:21.860Z,0
2016-09-26T03:24:21.815Z,0
2016-09-26T03:25:21.878Z,0
2016-09-26T03:26:21.902Z,0
2016-09-26T03:27:21.839Z,0
2016-09-26T03:28:21.896Z,0
2016-09-26T03:29:21.899Z,0
2016-09-26T03:30:22.218Z,0
2016-09-26T03:31:21.924Z,0
2016-09-26T03:32:21.955Z,0
2016-09-26T03:33:22.295Z,0
2016-09-26T03:34:21.988Z,0
2016-09-26T03:35:22.005Z,0
2016-09-26T03:36:22.035Z,0
2016-09-26T03:37:22.050Z,0
2016-09-26T03:38:22.072Z,0
2016-09-26T03:39:22.089Z,0
2016-09-26T03:40:22.116Z,0
2016-09-26T03:41:22.135Z,0
2016-09-26T03:42:22.151Z,0
2016-09-26T03:43:22.173Z,0
2016-09-26T03:44:22.195Z,0
2016-09-26T03:45:22.215Z,0
2016-09-26T03:46:22.244Z,0
2016-09-26T03:47:22.573Z,0
2016-09-26T03:48:22.275Z,0
2016-09-26T03:49:22.608Z,0
2016-09-26T03:50:22.329Z,0
2016-09-26T03:51:22.343Z,0
2016-09-26T03:52:22.359Z,0
2016-09-26T03:53:22.698Z,0
2016-09-26T03:54:22.400Z,0
2016-09-26T03:55:22.422Z,0
2016-09-26T03:56:22.446Z,0
2016-09-26T03:57:22.463Z,0
2016-09-26T03:58:22.487Z,0
2016-09-26T03:59:22.503Z,0
2016-09-26T04:00:22.525Z,0
2016-09-26T04:01:22.865Z,0
2016-09-26T04:02:22.566Z,0
2016-09-26T04:03:22.596Z,0
2016-09-26T04:04:22.603Z,0
2016-09-26T04:05:22.630Z,0
2016-09-26T04:06:22.961Z,0
2016-09-26T04:07:22.667Z,0
2016-09-26T04:08:22.690Z,0
2016-09-26T04:09:22.706Z,0
2016-09-26T04:10:22.735Z,0
2016-09-26T04:11:22.749Z,0
2016-09-26T04:12:22.767Z,0
2016-09-26T04:13:22.800Z,0
2016-09-26T04:14:22.809Z,0
2016-09-26T04:15:22.830Z,0
2016-09-26T04:16:22.853Z,0
2016-09-26T04:17:22.872Z,0
2016-09-26T04:18:22.898Z,0
2016-09-26T04:19:22.918Z,0
2016-09-26T04:20:22.944Z,0
2016-09-26T04:21:22.960Z,0
2016-09-26T04:22:22.974Z,0
2016-09-26T04:23:22.996Z,0
2016-09-26T04:24:23.333Z,0
2016-09-26T04:25:23.051Z,0
2016-09-26T04:26:23.056Z,0
2016-09-26T04:27:23.077Z,0
2016-09-26T04:28:23.098Z,0
2016-09-26T04:29:23.117Z,0
2016-09-26T04:30:23.147Z,0
2016-09-26T04:31:23.165Z,0
2016-09-26T04:32:23.179Z,0
2016-09-26T04:33:23.205Z,0
2016-09-26T04:34:23.230Z,0
2016-09-26T04:35:23.238Z,0
2016-09-26T04:36:23.264Z,0
2016-09-26T04:37:23.704Z,0
2016-09-26T04:38:23.304Z,0
2016-09-26T04:39:24.041Z,0
2016-09-26T04:40:23.343Z,0
2016-09-26T04:41:23.380Z,0
2016-09-26T04:42:23.511Z,0
2016-09-26T04:43:23.493Z,0
2016-09-26T04:44:23.657Z,4
2016-09-26T04:45:23.654Z,4
2016-09-26T04:46:24.191Z,0
2016-09-26T04:47:23.678Z,0
2016-09-26T04:48:23.687Z,4
2016-09-26T04:49:23.694Z,4
2016-09-26T04:50:23.706Z,4
2016-09-26T04:51:24.020Z,4
2016-09-26T04:52:23.714Z,8
2016-09-26T04:53:23.720Z,4
2016-09-26T04:54:23.959Z,4
2016-09-26T04:55:24.052Z,8
2016-09-26T04:56:23.777Z,12
2016-09-26T04:57:23.787Z,8
2016-09-26T04:58:23.794Z,12
2016-09-26T04:59:23.803Z,16
2016-09-26T05:00:23.844Z,16
2016-09-26T05:01:23.851Z,16
2016-09-26T05:02:23.860Z,16
2016-09-26T05:03:23.896Z,20
2016-09-26T05:04:23.906Z,20
2016-09-26T05:05:23.902Z,20
2016-09-26T05:06:23.914Z,24
2016-09-26T05:07:23.920Z,24
2016-09-26T05:08:23.930Z,28
2016-09-26T05:09:23.928Z,28
2016-09-26T05:10:23.956Z,28
2016-09-26T05:11:23.971Z,32
2016-09-26T05:12:23.995Z,36
2016-09-26T05:13:24.019Z,36
2016-09-26T05:14:24.036Z,40
2016-09-26T05:15:24.060Z,40
2016-09-26T05:16:24.085Z,48
2016-09-26T05:17:24.096Z,52
2016-09-26T05:18:24.117Z,56
2016-09-26T05:19:24.140Z,56
2016-09-26T05:20:24.247Z,64
2016-09-26T05:21:24.180Z,68
2016-09-26T05:22:24.210Z,72
2016-09-26T05:23:24.216Z,76
2016-09-26T05:24:24.241Z,76
2016-09-26T05:25:24.257Z,80
2016-09-26T05:26:24.274Z,84
2016-09-26T05:27:24.299Z,88
2016-09-26T05:28:24.431Z,96
2016-09-26T05:29:24.828Z,108
2016-09-26T05:30:24.446Z,116
2016-09-26T05:31:24.588Z,124
2016-09-26T05:32:24.599Z,136
2016-09-26T05:33:24.614Z,148
2016-09-26T05:34:24.624Z,160
2016-09-26T05:35:24.620Z,172
2016-09-26T05:36:24.629Z,188
2016-09-26T05:37:24.641Z,196
2016-09-26T05:38:24.650Z,208
2016-09-26T05:39:24.658Z,220
2016-09-26T05:40:24.654Z,232
2016-09-26T05:41:24.692Z,248
2016-09-26T05:42:24.805Z,264
2016-09-26T05:43:24.719Z,276
2016-09-26T05:44:24.717Z,288
2016-09-26T05:45:24.728Z,296
2016-09-26T05:46:24.777Z,292
2016-09-26T05:47:24.786Z,304
2016-09-26T05:48:24.791Z,304
2016-09-26T05:49:24.818Z,320
2016-09-26T05:50:24.826Z,328
2016-09-26T05:51:24.833Z,328
2016-09-26T05:52:24.844Z,336
2016-09-26T05:53:24.856Z,348
2016-09-26T05:54:24.852Z,356
2016-09-26T05:55:24.860Z,364
2016-09-26T05:56:24.881Z,372
2016-09-26T05:57:24.903Z,380
2016-09-26T05:58:24.929Z,384
2016-09-26T05:59:24.944Z,392
2016-09-26T06:00:24.964Z,392
2016-09-26T06:01:24.978Z,400
2016-09-26T06:02:25.010Z,424
2016-09-26T06:03:25.023Z,444
2016-09-26T06:04:25.039Z,452
2016-09-26T06:05:25.077Z,460
2016-09-26T06:06:25.086Z,452
2016-09-26T06:07:25.105Z,456
2016-09-26T06:08:25.125Z,476
2016-09-26T06:09:25.140Z,504
2016-09-26T06:10:25.170Z,504
2016-09-26T06:11:25.184Z,476
2016-09-26T06:12:25.200Z,516
2016-09-26T06:13:25.222Z,544
2016-09-26T06:14:25.255Z,568
2016-09-26T06:15:25.260Z,560
2016-09-26T06:16:25.289Z,584
2016-09-26T06:17:25.312Z,604
2016-09-26T06:18:25.333Z,584
2016-09-26T06:19:25.345Z,592
2016-09-26T06:20:25.366Z,612
2016-09-26T06:21:25.396Z,652
2016-09-26T06:22:25.411Z,656
2016-09-26T06:23:25.426Z,552
2016-09-26T06:24:25.443Z,528
2016-09-26T06:25:25.471Z,572
2016-09-26T06:26:25.490Z,600
2016-09-26T06:27:25.521Z,540
2016-09-26T06:28:25.531Z,480
2016-09-26T06:29:25.553Z,520
2016-09-26T06:30:25.569Z,496
2016-09-26T06:31:25.589Z,480
2016-09-26T06:32:25.613Z,476
2016-09-26T06:33:25.638Z,464
2016-09-26T06:34:25.650Z,484
2016-09-26T06:35:25.687Z,492
2016-09-26T06:36:25.712Z,500
2016-09-26T06:37:25.716Z,492
2016-09-26T06:38:25.730Z,472
2016-09-26T06:39:25.753Z,488
2016-09-26T06:40:25.772Z,496
2016-09-26T06:41:25.792Z,496
2016-09-26T06:42:25.814Z,496
2016-09-26T06:43:25.836Z,504
2016-09-26T06:44:25.855Z,504
2016-09-26T06:45:25.879Z,512
2016-09-26T06:46:25.895Z,504
2016-09-26T06:47:25.915Z,524
2016-09-26T06:48:25.949Z,492
2016-09-26T06:49:25.954Z,488
2016-09-26T06:50:25.973Z,492
2016-09-26T06:51:25.992Z,484
2016-09-26T06:52:26.020Z,476
2016-09-26T06:53:26.039Z,472
2016-09-26T06:54:26.064Z,436
2016-09-26T06:55:26.081Z,460
2016-09-26T06:56:26.103Z,424
2016-09-26T06:57:26.117Z,448
2016-09-26T06:58:26.148Z,428
2016-09-26T06:59:26.162Z,420
2016-09-26T07:00:26.180Z,420
2016-09-26T07:01:26.196Z,424
2016-09-26T07:02:26.219Z,416
2016-09-26T07:03:26.245Z,452
2016-09-26T07:04:26.262Z,440
2016-09-26T07:05:26.281Z,444
2016-09-26T07:06:26.308Z,440
2016-09-26T07:07:26.326Z,440
2016-09-26T07:08:26.459Z,436
2016-09-26T07:09:26.479Z,448
2016-09-26T07:10:26.798Z,408
2016-09-26T07:11:26.495Z,444
2016-09-26T07:12:26.618Z,384
2016-09-26T07:13:26.630Z,452
2016-09-26T07:14:26.630Z,412
2016-09-26T07:15:26.642Z,408
2016-09-26T07:16:26.856Z,428
2016-09-26T07:17:26.661Z,348
2016-09-26T07:18:26.801Z,352
2016-09-26T07:19:26.676Z,348
2016-09-26T07:20:26.804Z,344
2016-09-26T07:21:26.816Z,344
2016-09-26T07:22:26.824Z,344
2016-09-26T07:23:26.900Z,332
2016-09-26T07:24:26.835Z,336
2016-09-26T07:25:26.785Z,332
2016-09-26T07:26:26.790Z,336
2016-09-26T07:27:26.809Z,340
2016-09-26T07:28:27.153Z,360
2016-09-26T07:29:26.835Z,372
2016-09-26T07:30:26.866Z,348
2016-09-26T07:31:26.854Z,348
2016-09-26T07:32:26.863Z,352
2016-09-26T07:33:26.908Z,360
2016-09-26T07:34:26.889Z,396
2016-09-26T07:35:26.897Z,464
2016-09-26T07:36:26.923Z,484
2016-09-26T07:37:26.953Z,456
2016-09-26T07:38:26.965Z,416
2016-09-26T07:39:26.987Z,432
2016-09-26T07:40:27.002Z,440
2016-09-26T07:41:27.020Z,456
2016-09-26T07:42:27.044Z,472
2016-09-26T07:43:27.064Z,476
2016-09-26T07:44:27.090Z,508
2016-09-26T07:45:27.113Z,612
2016-09-26T07:46:27.136Z,524
2016-09-26T07:47:27.151Z,604
2016-09-26T07:48:27.180Z,616
2016-09-26T07:49:27.192Z,568
2016-09-26T07:50:27.214Z,616
2016-09-26T07:51:27.236Z,796
2016-09-26T07:52:27.248Z,696
2016-09-26T07:53:27.285Z,644
2016-09-26T07:54:27.293Z,680
2016-09-26T07:55:27.311Z,880
2016-09-26T07:56:27.335Z,816
2016-09-26T07:57:27.359Z,736
2016-09-26T07:58:27.371Z,772
2016-09-26T07:59:27.400Z,692
2016-09-26T08:00:27.422Z,664
2016-09-26T08:01:27.443Z,688
2016-09-26T08:02:27.461Z,680
2016-09-26T08:03:27.480Z,684
2016-09-26T08:04:27.506Z,640
2016-09-26T08:05:27.522Z,644
2016-09-26T08:06:27.542Z,640
2016-09-26T08:07:27.570Z,632
2016-09-26T08:08:27.589Z,652
2016-09-26T08:09:27.603Z,816
2016-09-26T08:10:27.624Z,1144
2016-09-26T08:11:27.644Z,1184
2016-09-26T08:12:27.669Z,1160
2016-09-26T08:13:27.688Z,1108
2016-09-26T08:14:27.717Z,924
2016-09-26T08:15:27.737Z,872
2016-09-26T08:16:27.756Z,844
2016-09-26T08:17:27.778Z,796
2016-09-26T08:18:27.793Z,812
2016-09-26T08:19:27.821Z,736
2016-09-26T08:20:27.836Z,704
2016-09-26T08:21:27.868Z,696
2016-09-26T08:22:27.884Z,688
2016-09-26T08:23:27.899Z,804
2016-09-26T08:24:27.938Z,912
2016-09-26T08:25:27.943Z,824
2016-09-26T08:26:27.962Z,712
2016-09-26T08:27:27.986Z,700
2016-09-26T08:28:28.005Z,680
2016-09-26T08:29:28.025Z,684
2016-09-26T08:30:28.046Z,684
2016-09-26T08:31:28.076Z,732
2016-09-26T08:32:28.091Z,708
2016-09-26T08:33:28.128Z,760
2016-09-26T08:34:28.137Z,892
2016-09-26T08:35:28.153Z,868
2016-09-26T08:36:28.186Z,912
2016-09-26T08:37:28.195Z,780
2016-09-26T08:38:28.537Z,788
2016-09-26T08:39:28.603Z,836
2016-09-26T08:40:28.265Z,852
2016-09-26T08:41:28.285Z,880
2016-09-26T08:42:28.304Z,1008
2016-09-26T08:43:28.342Z,1200
2016-09-26T08:44:28.353Z,1044
2016-09-26T08:45:28.367Z,988
2016-09-26T08:46:28.504Z,1332
2016-09-26T08:47:28.500Z,1364
2016-09-26T08:48:28.434Z,1468
2016-09-26T08:49:28.451Z,1212
2016-09-26T08:50:28.473Z,1424
2016-09-26T08:51:28.495Z,1296
2016-09-26T08:52:28.520Z,1128
2016-09-26T08:53:28.536Z,1348
2016-09-26T08:54:28.563Z,1460
2016-09-26T08:55:28.582Z,1504
2016-09-26T08:56:28.609Z,1636
2016-09-26T08:57:28.637Z,1740
2016-09-26T08:58:28.644Z,1516
2016-09-26T08:59:28.674Z,1744
2016-09-26T09:00:28.688Z,1832
2016-09-26T09:01:28.803Z,1468
2016-09-26T09:02:28.733Z,1360
2016-09-26T09:03:28.756Z,1752
2016-09-26T09:04:28.784Z,1612
2016-09-26T09:05:28.808Z,1280
2016-09-26T09:06:28.825Z,1100
2016-09-26T09:07:29.357Z,1148
2016-09-26T09:08:28.877Z,1312
2016-09-26T09:09:28.885Z,1228
2016-09-26T09:10:28.911Z,1156
2016-09-26T09:11:28.938Z,1224
2016-09-26T09:12:28.951Z,1324
2016-09-26T09:13:29.080Z,1416
2016-09-26T09:14:29.113Z,1388
2016-09-26T09:15:29.021Z,1440
2016-09-26T09:16:29.042Z,1332
2016-09-26T09:17:29.066Z,1272
2016-09-26T09:18:29.098Z,1180
2016-09-26T09:19:29.329Z,1228
2016-09-26T09:20:29.159Z,1392
2016-09-26T09:21:29.241Z,1376
2016-09-26T09:22:29.177Z,1164
2016-09-26T09:23:29.309Z,1204
2016-09-26T09:24:29.244Z,1556
2016-09-26T09:25:29.249Z,1760
2016-09-26T09:26:29.264Z,1724
2016-09-26T09:27:29.321Z,2092
2016-09-26T09:28:29.317Z,1916
2016-09-26T09:29:29.455Z,1872
2016-09-26T09:30:29.362Z,1776
2016-09-26T09:31:29.462Z,1728
2016-09-26T09:32:29.469Z,1408
2016-09-26T09:33:29.424Z,1136
2016-09-26T09:34:29.448Z,1064
2016-09-26T09:35:29.468Z,1048
2016-09-26T09:36:29.656Z,1100
2016-09-26T09:37:29.658Z,1100
2016-09-26T09:38:29.544Z,1144
2016-09-26T09:39:29.571Z,1300
2016-09-26T09:40:29.693Z,1128
2016-09-26T09:41:29.606Z,1088
2016-09-26T09:42:29.633Z,1140
2016-09-26T09:43:29.651Z,1312
2016-09-26T09:44:29.675Z,1464
2016-09-26T09:45:29.705Z,1480
2016-09-26T09:46:29.731Z,1400
2016-09-26T09:47:29.851Z,1272
2016-09-26T09:48:29.772Z,1272
2016-09-26T09:49:29.853Z,1268
2016-09-26T09:50:29.988Z,1256
2016-09-26T09:51:29.947Z,1264
2016-09-26T09:52:29.854Z,1236
2016-09-26T09:53:30.012Z,1276
2016-09-26T09:54:29.907Z,1284
2016-09-26T09:55:29.927Z,1176
2016-09-26T09:56:29.954Z,1212
2016-09-26T09:57:29.973Z,1240
2016-09-26T09:58:29.996Z,1336
2016-09-26T09:59:30.133Z,1448
2016-09-26T10:00:30.042Z,1392
2016-09-26T10:01:30.063Z,1304
2016-09-26T10:02:30.088Z,1280
2016-09-26T10:03:30.111Z,1268
2016-09-26T10:04:30.131Z,1300
2016-09-26T10:05:30.275Z,1324
2016-09-26T10:06:30.282Z,1316
2016-09-26T10:07:30.207Z,1368
2016-09-26T10:08:30.231Z,1360
2016-09-26T10:09:30.252Z,1368
2016-09-26T10:10:30.282Z,1404
2016-09-26T10:11:30.426Z,1464
2016-09-26T10:12:30.420Z,1584
2016-09-26T10:13:30.359Z,1584
2016-09-26T10:14:30.479Z,1472
2016-09-26T10:15:30.581Z,1380
2016-09-26T10:16:30.489Z,1364
2016-09-26T10:17:30.529Z,1372
2016-09-26T10:18:30.461Z,1324
2016-09-26T10:19:30.486Z,1400
2016-09-26T10:20:30.518Z,1416
2016-09-26T10:21:30.534Z,1404
2016-09-26T10:22:30.557Z,1288
2016-09-26T10:23:30.582Z,1236
2016-09-26T10:24:30.740Z,1256
2016-09-26T10:25:30.630Z,1312
2016-09-26T10:26:30.661Z,1492
2016-09-26T10:27:30.675Z,1568
2016-09-26T10:28:30.708Z,1568
2016-09-26T10:29:30.722Z,1660
2016-09-26T10:30:30.749Z,1788
2016-09-26T10:31:30.777Z,2004
2016-09-26T10:32:30.798Z,2268
2016-09-26T10:33:30.818Z,2452
2016-09-26T10:34:30.857Z,2128
2016-09-26T10:35:30.871Z,2016
2016-09-26T10:36:30.891Z,1964
2016-09-26T10:37:30.918Z,1856
2016-09-26T10:38:31.058Z,1672
2016-09-26T10:39:30.967Z,1660
2016-09-26T10:40:30.997Z,1684
2016-09-26T10:41:31.332Z,1660
2016-09-26T10:42:31.038Z,1588
2016-09-26T10:43:31.075Z,1512
2016-09-26T10:44:31.207Z,1452
2016-09-26T10:45:31.123Z,1472
2016-09-26T10:46:31.141Z,1492
2016-09-26T10:47:31.158Z,1592
2016-09-26T10:48:31.190Z,1796
2016-09-26T10:49:31.388Z,1976
2016-09-26T10:50:31.239Z,2264
2016-09-26T10:51:31.440Z,2400
2016-09-26T10:52:31.386Z,2236
2016-09-26T10:53:31.333Z,2200
2016-09-26T10:54:31.343Z,2248
2016-09-26T10:55:31.365Z,2268
2016-09-26T10:56:31.385Z,2312
2016-09-26T10:57:31.421Z,2412
2016-09-26T10:58:31.457Z,2312
2016-09-26T10:59:31.459Z,2208
2016-09-26T11:00:31.483Z,2236
2016-09-26T11:01:31.707Z,2264
2016-09-26T11:02:31.533Z,2052
2016-09-26T11:03:31.567Z,1996
2016-09-26T11:04:31.585Z,2072
2016-09-26T11:05:31.725Z,2200
2016-09-26T11:06:31.636Z,2316
2016-09-26T11:07:31.661Z,2324
2016-09-26T11:08:31.687Z,2172
2016-09-26T11:09:31.715Z,2188
2016-09-26T11:10:31.737Z,2476
2016-09-26T11:11:31.766Z,2536
2016-09-26T11:12:31.783Z,2440
2016-09-26T11:13:31.813Z,2404
2016-09-26T11:14:31.841Z,2424
2016-09-26T11:15:31.860Z,2380
2016-09-26T11:16:31.908Z,2272
2016-09-26T11:17:31.914Z,2320
2016-09-26T11:18:31.938Z,2364
2016-09-26T11:19:31.968Z,2508
2016-09-26T11:20:31.996Z,2616
2016-09-26T11:21:32.015Z,2588
2016-09-26T11:22:32.045Z,2472
2016-09-26T11:23:32.069Z,2228
2016-09-26T11:24:32.094Z,2188
2016-09-26T11:25:32.120Z,2120
2016-09-26T11:26:32.143Z,1984
2016-09-26T11:27:32.175Z,1784
2016-09-26T11:28:32.313Z,1668
2016-09-26T11:29:32.313Z,1748
2016-09-26T11:30:32.487Z,1596
2016-09-26T11:31:32.494Z,1544
2016-09-26T11:32:32.398Z,1484
2016-09-26T11:33:32.405Z,1484
2016-09-26T11:34:32.414Z,1520
2016-09-26T11:35:32.382Z,1572
2016-09-26T11:36:32.409Z,1532
2016-09-26T11:37:32.430Z,1560
2016-09-26T11:38:32.462Z,1664
2016-09-26T11:39:32.490Z,1668
2016-09-26T11:40:32.509Z,1540
2016-09-26T11:41:32.545Z,1696
2016-09-26T11:42:32.565Z,1692
2016-09-26T11:43:32.593Z,1516
2016-09-26T11:44:32.623Z,1520
2016-09-26T11:45:32.643Z,1420
2016-09-26T11:46:32.677Z,1588
2016-09-26T11:47:32.698Z,1580
2016-09-26T11:48:32.728Z,1552
2016-09-26T11:49:32.761Z,1644
2016-09-26T11:50:32.968Z,1668
2016-09-26T11:51:32.806Z,1700
2016-09-26T11:52:32.831Z,1716
2016-09-26T11:53:32.855Z,1740
2016-09-26T11:54:32.878Z,1644
2016-09-26T11:55:32.911Z,1536
2016-09-26T11:56:32.945Z,1524
2016-09-26T11:57:32.977Z,1604
2016-09-26T11:58:32.997Z,1668
2016-09-26T11:59:33.016Z,1728
2016-09-26T12:00:33.160Z,1760
2016-09-26T12:01:33.114Z,1796
2016-09-26T12:02:33.117Z,1684
2016-09-26T12:03:33.242Z,1720
2016-09-26T12:04:33.158Z,1900
2016-09-26T12:05:33.181Z,2172
2016-09-26T12:06:33.209Z,2376
2016-09-26T12:07:33.234Z,2464
2016-09-26T12:08:33.274Z,2544
2016-09-26T12:09:33.291Z,2524
2016-09-26T12:10:33.312Z,2436
2016-09-26T12:11:33.358Z,2308
2016-09-26T12:12:33.373Z,2384
2016-09-26T12:13:33.398Z,2472
2016-09-26T12:14:33.427Z,2504
2016-09-26T12:15:33.453Z,2480
2016-09-26T12:16:33.473Z,2500
2016-09-26T12:17:33.614Z,2692
2016-09-26T12:18:33.616Z,2792
2016-09-26T12:19:33.641Z,2796
2016-09-26T12:20:33.598Z,2660
2016-09-26T12:21:33.611Z,2680
2016-09-26T12:22:33.645Z,2852
2016-09-26T12:23:33.686Z,2948
2016-09-26T12:24:33.696Z,2672
2016-09-26T12:25:33.723Z,2348
2016-09-26T12:26:33.749Z,2176
2016-09-26T12:27:33.781Z,2124
2016-09-26T12:28:33.812Z,2132
2016-09-26T12:29:33.837Z,2164
2016-09-26T12:30:33.870Z,2092
2016-09-26T12:31:33.897Z,1880
2016-09-26T12:32:33.921Z,1632
2016-09-26T12:33:33.945Z,1452
2016-09-26T12:34:33.974Z,1368
2016-09-26T12:35:34.065Z,1284
2016-09-26T12:36:34.031Z,1204
2016-09-26T12:37:34.054Z,1064
2016-09-26T12:38:34.080Z,916
2016-09-26T12:39:34.228Z,876
2016-09-26T12:40:34.251Z,948
2016-09-26T12:41:34.170Z,1100
2016-09-26T12:42:34.197Z,1196
2016-09-26T12:43:34.221Z,1224
2016-09-26T12:44:34.250Z,1268
2016-09-26T12:45:34.275Z,1256
2016-09-26T12:46:34.302Z,1228
2016-09-26T12:47:34.336Z,1212
2016-09-26T12:48:34.359Z,1196
2016-09-26T12:49:34.388Z,1140
2016-09-26T12:50:34.416Z,1072
2016-09-26T12:51:34.441Z,1048
2016-09-26T12:52:34.475Z,1064
2016-09-26T12:53:34.512Z,1080
2016-09-26T12:54:34.524Z,1152
2016-09-26T12:55:34.556Z,1336
2016-09-26T12:56:34.583Z,1568
2016-09-26T12:57:34.619Z,1680
2016-09-26T12:58:34.644Z,1624
2016-09-26T12:59:34.666Z,1460
2016-09-26T13:00:34.714Z,1372
2016-09-26T13:01:34.726Z,1352
2016-09-26T13:02:34.748Z,1404
2016-09-26T13:03:34.780Z,1548
2016-09-26T13:04:34.800Z,1772
2016-09-26T13:05:34.832Z,1976
2016-09-26T13:06:34.868Z,2092
2016-09-26T13:07:34.890Z,2076
2016-09-26T13:08:34.923Z,1992
2016-09-26T13:09:35.025Z,1964
2016-09-26T13:10:34.971Z,1992
2016-09-26T13:11:35.128Z,2032
2016-09-26T13:12:35.137Z,2064
2016-09-26T13:13:35.146Z,2080
2016-09-26T13:14:35.084Z,2052
2016-09-26T13:15:35.177Z,1996
2016-09-26T13:16:35.138Z,1936
2016-09-26T13:17:35.372Z,1884
2016-09-26T13:18:35.509Z,1872
2016-09-26T13:19:35.224Z,1892
2016-09-26T13:20:35.253Z,1896
2016-09-26T13:21:35.276Z,1884
2016-09-26T13:22:35.703Z,1848
2016-09-26T13:23:35.425Z,1848
2016-09-26T13:24:35.364Z,1868
2016-09-26T13:25:35.419Z,1880
2016-09-26T13:26:35.427Z,1864
2016-09-26T13:27:35.447Z,1840
2016-09-26T13:28:35.796Z,1848
2016-09-26T13:29:35.502Z,1912
2016-09-26T13:30:35.536Z,1960
2016-09-26T13:31:35.561Z,2004
2016-09-26T13:32:35.588Z,2092
2016-09-26T13:33:35.617Z,2180
2016-09-26T13:34:35.644Z,2248
2016-09-26T13:35:35.785Z,2296
2016-09-26T13:36:35.699Z,2304
2016-09-26T13:37:35.728Z,2320
2016-09-26T13:38:35.757Z,2324
2016-09-26T13:39:35.787Z,2352
2016-09-26T13:40:35.811Z,2340
2016-09-26T13:41:35.846Z,2360
2016-09-26T13:42:35.868Z,2420
2016-09-26T13:43:35.896Z,2472
2016-09-26T13:44:35.933Z,2528
2016-09-26T13:45:36.178Z,2516
2016-09-26T13:46:36.185Z,2488
2016-09-26T13:47:36.009Z,2496
2016-09-26T13:48:36.237Z,2500
2016-09-26T13:49:36.123Z,2448
2016-09-26T13:50:36.133Z,2448
2016-09-26T13:51:36.116Z,2464
2016-09-26T13:52:36.148Z,2500
2016-09-26T13:53:36.179Z,2520
2016-09-26T13:54:36.258Z,2532
2016-09-26T13:55:36.233Z,2528
2016-09-26T13:56:36.257Z,2484